Java Sea — WDB5557 — position and weather

sailwx.info

Track history (hours):
 
Tides and Currents Weather Stations Pressure Air Temp Water Temp Dewpoint Dewpoint Depression Visibility Wind Speed Wind Dir Waves Ship Positions

Java Sea

Owner: Kirby Offshore Marine, LLC, Staten Island, NY. More information available from US FCC via Universal Licensing System and Coast Guard Vessel Documentation Center.

Last reported at 2015-May-17 23:33 UTC. Time now 2015-Sep-01 10:10 UTC.
Position N 47°40' W 122°23'.
Warning: this ship's position is months out of date.

Length 129 m; draft 6.9 m.

Type: Tug. MMSI: 366910940.

Date/timePositionNaut miles runAvg speedWind from/ knotsBaromVisibWave heightAir tempDewpointWater temp
2015-May-17 23:33N 47°40' W 122°23'0 0.0
2015-May-17 23:33N 47°40' W 122°23'0 0.0
2015-May-17 22:30N 47°40' W 122°23'0 0.0
2015-May-17 22:27N 47°40' W 122°23'0 0.0
2015-May-17 21:33N 47°40' W 122°23'0 0.0
2015-May-17 21:33N 47°40' W 122°23'0 0.0
2015-May-17 20:33N 47°40' W 122°23'0 2.5
2015-May-17 20:32N 47°40' W 122°23'0 0.4
2015-May-17 19:33N 47°40' W 122°24'0 3.5
2015-May-17 19:32N 47°40' W 122°24'9 8.9
2015-May-17 18:33N 47°49' W 122°26'010.6
2015-May-17 18:31N 47°49' W 122°26'1010.7
2015-May-17 17:33N 47°58' W 122°34'13 9.4
2015-May-17 16:12N 48°09' W 122°42'7 9.8
2015-May-17 15:31N 48°15' W 122°47'1212.9
2015-May-17 14:33N 48°27' W 122°43'6 2.8
2015-May-17 12:21N 48°31' W 122°36'0 0.0
2015-May-17 11:28N 48°31' W 122°36'0 0.0
2015-May-17 10:32N 48°31' W 122°36'0 0.0
2015-May-17 09:20N 48°31' W 122°36'0 0.0
2015-May-17 08:18N 48°31' W 122°36'0 0.0
2015-May-17 07:26N 48°31' W 122°36'0 0.0
2015-May-17 06:30N 48°31' W 122°36'0 0.0
2015-May-17 05:31N 48°31' W 122°36'0 0.0
2015-May-17 04:23N 48°31' W 122°36'0 0.0
2015-May-17 01:10N 48°31' W 122°36'0 0.0
2015-May-16 22:04N 48°31' W 122°36'0 0.0
2015-May-16 21:20N 48°31' W 122°36'0 0.0
2015-May-16 20:32N 48°31' W 122°36'0 0.0
2015-May-16 18:31N 48°31' W 122°36'0 0.0
2015-May-16 14:25N 48°31' W 122°36'0 0.0
2015-May-16 13:33N 48°31' W 122°36'0 0.0
2015-May-16 12:31N 48°31' W 122°36'0 0.0
2015-May-16 10:27N 48°31' W 122°36'0 0.0
2015-May-16 09:20N 48°31' W 122°36'0 0.0
2015-May-16 06:19N 48°31' W 122°36'0 0.0
2015-May-16 04:11N 48°31' W 122°36'0 0.0
2015-May-16 03:28N 48°31' W 122°36'0 0.0
2015-May-16 02:26N 48°31' W 122°36'0 0.0
2015-May-16 01:17N 48°31' W 122°36'0 0.5
2015-May-16 00:33N 48°31' W 122°37'6 5.9
2015-May-15 23:33N 48°34' W 122°45'8 8.3
2015-May-15 22:33N 48°42' W 122°45'9 9.1
2015-May-15 21:33N 48°48' W 122°55'10 9.8
2015-May-15 20:33N 48°54' W 123°07'1010.3
2015-May-15 19:34N 49°01' W 123°19'1010.1
2015-May-15 18:34N 49°07' W 123°31'1110.9
2015-May-15 17:33N 49°15' W 123°43'1211.2
2015-May-15 16:31N 49°23' W 123°56'1210.8
2015-May-15 15:26N 49°30' W 124°10'3510.8
2015-May-15 12:11N 49°50' W 124°55'7710.1
2015-May-15 04:32N 50°31' W 126°37'1110.2
2015-May-15 03:28N 50°39' W 126°49'1010.8
2015-May-15 02:33N 50°44' W 127°02'1110.8
2015-May-15 01:34N 50°48' W 127°18'1010.4
2015-May-15 00:34N 50°52' W 127°33'10 9.6
2015-May-14 23:33N 50°58' W 127°45'1010.2
2015-May-14 22:32N 51°05' W 127°57'1110.6
2015-May-14 21:30N 51°15' W 128°05'  
Track history (hours):
 
Tides and Currents Weather Stations Pressure Air Temp Water Temp Dewpoint Dewpoint Depression Visibility Wind Speed Wind Dir Waves Ship Positions

Java Sea

Owner: Kirby Offshore Marine, LLC, Staten Island, NY. More information available from US FCC via Universal Licensing System and Coast Guard Vessel Documentation Center.

Last reported at 2015-May-17 23:33 UTC. Time now 2015-Sep-01 10:10 UTC.
Position N 47°40' W 122°23'.
Warning: this ship's position is months out of date.

Length 129 m; draft 6.9 m.

Type: Tug. MMSI: 366910940.

Date/timePositionNaut miles runAvg speedWind from/ knotsBaromVisibWave heightAir tempDewpointWater temp
2015-May-17 23:33N 47°40' W 122°23'0 0.0
2015-May-17 23:33N 47°40' W 122°23'0 0.0
2015-May-17 22:30N 47°40' W 122°23'0 0.0
2015-May-17 22:27N 47°40' W 122°23'0 0.0
2015-May-17 21:33N 47°40' W 122°23'0 0.0
2015-May-17 21:33N 47°40' W 122°23'0 0.0
2015-May-17 20:33N 47°40' W 122°23'0 2.5
2015-May-17 20:32N 47°40' W 122°23'0 0.4
2015-May-17 19:33N 47°40' W 122°24'0 3.5
2015-May-17 19:32N 47°40' W 122°24'9 8.9
2015-May-17 18:33N 47°49' W 122°26'010.6
2015-May-17 18:31N 47°49' W 122°26'1010.7
2015-May-17 17:33N 47°58' W 122°34'13 9.4
2015-May-17 16:12N 48°09' W 122°42'7 9.8
2015-May-17 15:31N 48°15' W 122°47'1212.9
2015-May-17 14:33N 48°27' W 122°43'6 2.8
2015-May-17 12:21N 48°31' W 122°36'0 0.0
2015-May-17 11:28N 48°31' W 122°36'0 0.0
2015-May-17 10:32N 48°31' W 122°36'0 0.0
2015-May-17 09:20N 48°31' W 122°36'0 0.0
2015-May-17 08:18N 48°31' W 122°36'0 0.0
2015-May-17 07:26N 48°31' W 122°36'0 0.0
2015-May-17 06:30N 48°31' W 122°36'0 0.0
2015-May-17 05:31N 48°31' W 122°36'0 0.0
2015-May-17 04:23N 48°31' W 122°36'0 0.0
2015-May-17 01:10N 48°31' W 122°36'0 0.0
2015-May-16 22:04N 48°31' W 122°36'0 0.0
2015-May-16 21:20N 48°31' W 122°36'0 0.0
2015-May-16 20:32N 48°31' W 122°36'0 0.0
2015-May-16 18:31N 48°31' W 122°36'0 0.0
2015-May-16 14:25N 48°31' W 122°36'0 0.0
2015-May-16 13:33N 48°31' W 122°36'0 0.0
2015-May-16 12:31N 48°31' W 122°36'0 0.0
2015-May-16 10:27N 48°31' W 122°36'0 0.0
2015-May-16 09:20N 48°31' W 122°36'0 0.0
2015-May-16 06:19N 48°31' W 122°36'0 0.0
2015-May-16 04:11N 48°31' W 122°36'0 0.0
2015-May-16 03:28N 48°31' W 122°36'0 0.0
2015-May-16 02:26N 48°31' W 122°36'0 0.0
2015-May-16 01:17N 48°31' W 122°36'0 0.5
2015-May-16 00:33N 48°31' W 122°37'6 5.9
2015-May-15 23:33N 48°34' W 122°45'8 8.3
2015-May-15 22:33N 48°42' W 122°45'9 9.1
2015-May-15 21:33N 48°48' W 122°55'10 9.8
2015-May-15 20:33N 48°54' W 123°07'1010.3
2015-May-15 19:34N 49°01' W 123°19'1010.1
2015-May-15 18:34N 49°07' W 123°31'1110.9
2015-May-15 17:33N 49°15' W 123°43'1211.2
2015-May-15 16:31N 49°23' W 123°56'1210.8
2015-May-15 15:26N 49°30' W 124°10'3510.8
2015-May-15 12:11N 49°50' W 124°55'7710.1
2015-May-15 04:32N 50°31' W 126°37'1110.2
2015-May-15 03:28N 50°39' W 126°49'1010.8
2015-May-15 02:33N 50°44' W 127°02'1110.8
2015-May-15 01:34N 50°48' W 127°18'1010.4
2015-May-15 00:34N 50°52' W 127°33'10 9.6
2015-May-14 23:33N 50°58' W 127°45'1010.2
2015-May-14 22:32N 51°05' W 127°57'1110.6
2015-May-14 21:30N 51°15' W 128°05'  

Dump ship's entire track history